Time;durP1;ratioP1;P1;durP2;ratioP2;P2;SDS_P1;SDS_P2;PMS_P1;PMS_P2;Temp;Humidity;BMP_temperature;BMP_pressure;BME280_temperature;BME280_humidity;BME280_pressure;Samples;Min_cycle;Max_cycle;Signal;HPM_P1;HPM_P2
2022/09/26 00:00:52;;;;;;;25.10;12.02;;;;;;;10.07;76.59;98643.41;5074680;28;20048;-93
2022/09/26 00:03:18;;;;;;;30.20;11.68;;;;;;;9.88;77.34;98639.13;5082862;28;20044;-88
2022/09/26 00:05:47;;;;;;;28.95;12.05;;;;;;;9.76;77.81;98640.91;5061064;28;20044;-88
2022/09/26 00:08:39;;;;;;;24.63;11.73;;;;;;;9.84;77.97;98651.03;5077258;28;20043;-89
2022/09/26 00:11:11;;;;;;;22.42;11.13;;;;;;;9.43;77.97;98583.34;5097034;28;20612;-88
2022/09/26 00:14:22;;;;;;;25.27;11.52;;;;;;;9.82;77.44;98645.88;5096679;28;20110;-88
2022/09/26 00:16:52;;;;;;;21.75;11.27;;;;;;;9.69;77.42;98633.22;5115345;22;20077;-94
2022/09/26 00:20:23;;;;;;;32.33;12.07;;;;;;;9.83;78.14;98643.94;5098175;28;20047;-89
2022/09/26 00:22:49;;;;;;;24.95;12.02;;;;;;;9.48;78.08;98591.38;5077590;28;20059;-89
2022/09/26 00:25:19;;;;;;;25.63;12.52;;;;;;;9.71;78.39;98636.44;5095015;28;20044;-89
2022/09/26 00:28:00;;;;;;;25.02;12.07;;;;;;;9.40;78.65;98587.50;5095767;28;20044;-88
2022/09/26 00:30:27;;;;;;;26.88;11.63;;;;;;;9.52;78.29;98614.94;5097556;28;20039;-92
2022/09/26 00:33:00;;;;;;;25.95;12.43;;;;;;;9.65;78.17;98624.06;5093564;28;20512;-88
2022/09/26 00:35:54;;;;;;;28.17;11.90;;;;;;;9.87;78.53;98653.09;5102367;22;20054;-95
2022/09/26 00:38:24;;;;;;;25.13;12.43;;;;;;;9.55;78.50;98608.84;5076547;28;20102;-89
2022/09/26 00:40:50;;;;;;;33.42;13.55;;;;;;;9.60;78.51;98614.13;5073218;28;20040;-89
2022/09/26 00:43:56;;;;;;;31.02;14.27;;;;;;;9.71;78.71;98630.19;5085652;28;20421;-89
2022/09/26 00:47:18;;;;;;;34.30;14.38;;;;;;;10.01;78.44;98653.72;5076393;28;20132;-96
2022/09/26 00:49:45;;;;;;;27.83;13.48;;;;;;;9.69;78.44;98618.78;5057831;28;20071;-94
2022/09/26 00:52:43;;;;;;;32.00;15.43;;;;;;;10.06;78.66;98664.44;5078324;28;20036;-94
2022/09/26 00:55:13;;;;;;;43.30;18.13;;;;;;;9.74;78.30;98619.41;5078557;28;20048;-88
2022/09/26 00:57:46;;;;;;;36.97;18.70;;;;;;;9.99;78.40;98672.34;5093867;28;20499;-88
2022/09/26 01:01:03;;;;;;;46.22;19.80;;;;;;;9.97;78.29;98669.13;5049499;28;20053;-89
2022/09/26 01:03:30;;;;;;;43.47;20.33;;;;;;;9.61;78.42;98617.66;5032281;28;20048;-89
2022/09/26 01:06:00;;;;;;;41.42;19.95;;;;;;;9.58;78.45;98608.19;5033875;28;20041;-96
2022/09/26 01:09:00;;;;;;;45.03;19.65;;;;;;;9.88;78.50;98671.88;5033626;28;20041;-88
2022/09/26 01:11:28;;;;;;;38.20;18.55;;;;;;;9.73;78.83;98655.19;5024934;28;20044;-87
2022/09/26 01:14:21;;;;;;;40.03;17.33;;;;;;;9.87;78.21;98664.03;5035990;28;20041;-96
2022/09/26 01:16:50;;;;;;;36.03;16.77;;;;;;;9.45;78.17;98601.00;5033119;28;20398;-93
2022/09/26 01:19:35;;;;;;;38.72;16.38;;;;;;;9.62;78.13;98632.91;5032906;28;20128;-89
2022/09/26 01:22:31;;;;;;;39.10;16.20;;;;;;;9.29;78.37;98587.03;5032920;28;20046;-88
2022/09/26 01:25:21;;;;;;;33.97;15.38;;;;;;;9.80;78.28;98660.97;4937692;29;20043;-88
2022/09/26 01:28:12;;;;;;;32.58;15.50;;;;;;;9.78;78.41;98663.22;5033138;28;20119;-93
2022/09/26 01:31:07;;;;;;;31.65;13.20;;;;;;;9.71;78.14;98661.00;5017644;28;20049;-87
2022/09/26 01:34:26;;;;;;;31.60;13.30;;;;;;;9.34;77.96;98613.38;5021181;28;20078;-94
2022/09/26 01:37:27;;;;;;;29.88;13.02;;;;;;;9.64;77.71;98666.16;5017315;28;20045;-93
2022/09/26 01:40:18;;;;;;;29.67;13.13;;;;;;;9.38;78.38;98625.22;5016629;28;20095;-88
2022/09/26 01:43:15;;;;;;;;;;;;;;;9.60;77.76;98671.44;5047299;28;20039;-87
2022/09/26 01:46:00;;;;;;;24.15;12.40;;;;;;;9.58;77.64;98684.59;5059414;28;19921;-89
2022/09/26 01:48:35;;;;;;;27.17;12.77;;;;;;;9.01;77.65;98596.69;5014841;28;20057;-93
2022/09/26 01:51:14;;;;;;;27.48;13.45;;;;;;;9.20;77.35;98642.69;5033931;28;20053;-88
2022/09/26 01:54:22;;;;;;;27.80;13.10;;;;;;;9.48;77.98;98689.56;5051181;28;20052;-95
2022/09/26 01:57:18;;;;;;;27.85;12.27;;;;;;;9.46;78.20;98686.34;4944071;28;20547;-95
2022/09/26 01:59:52;;;;;;;23.75;11.35;;;;;;;8.89;77.77;98603.56;4960262;28;20054;-93
2022/09/26 02:02:25;;;;;;;23.10;11.93;;;;;;;9.21;78.06;98647.84;4971886;28;20058;-88
2022/09/26 02:05:07;;;;;;;24.52;12.55;;;;;;;9.11;77.75;98629.09;4941020;28;20030;-93
2022/09/26 02:07:39;;;;;;;24.45;12.02;;;;;;;9.41;77.63;98682.66;4956742;28;20111;-88
2022/09/26 02:10:29;;;;;;;27.67;12.25;;;;;;;9.43;78.06;98685.06;4970819;28;20061;-94
2022/09/26 02:13:13;;;;;;;26.33;12.30;;;;;;;9.43;77.87;98695.19;4961451;28;20117;-87
2022/09/26 02:15:43;;;;;;;28.17;13.38;;;;;;;9.41;77.94;98700.97;5002733;28;20045;-87
2022/09/26 02:18:25;;;;;;;25.65;12.77;;;;;;;9.24;78.44;98676.38;5018356;28;20057;-88
2022/09/26 02:24:22;;;;;;;27.38;11.88;;;;;;;8.96;78.73;98637.72;5000939;28;20081;-89
2022/09/26 02:26:51;;;;;;;31.98;13.63;;;;;;;8.92;78.51;98656.63;4962661;28;20049;-88
2022/09/26 02:29:34;;;;;;;28.02;12.10;;;;;;;9.09;78.79;98669.50;4949651;28;20054;-88
2022/09/26 02:32:15;;;;;;;34.28;13.45;;;;;;;8.80;78.80;98646.34;4963748;28;20121;-87
2022/09/26 02:34:45;;;;;;;30.27;13.45;;;;;;;8.72;78.94;98638.97;4943341;28;20046;-94
2022/09/26 02:37:20;;;;;;;28.00;12.65;;;;;;;8.65;78.93;98636.69;4939795;29;20043;-93
2022/09/26 02:39:59;;;;;;;32.13;15.05;;;;;;;8.67;79.01;98642.63;4954602;29;20043;-93
2022/09/26 02:43:00;;;;;;;28.95;12.82;;;;;;;9.17;79.18;98729.50;4919189;29;20048;-93
2022/09/26 02:46:05;;;;;;;29.13;13.25;;;;;;;8.84;79.08;98671.03;4919745;29;20071;-90
2022/09/26 02:48:47;;;;;;;27.63;13.37;;;;;;;9.21;79.60;98726.94;4917120;29;20044;-93
2022/09/26 02:51:44;;;;;;;29.73;13.10;;;;;;;9.26;79.79;98718.59;4869248;29;20044;-87
2022/09/26 02:54:38;;;;;;;29.95;14.30;;;;;;;9.28;79.25;98724.53;4900446;29;20040;-87
2022/09/26 02:58:04;;;;;;;29.38;13.80;;;;;;;9.32;79.28;98722.78;4931477;29;20067;-87
2022/09/26 03:00:37;;;;;;;33.33;13.65;;;;;;;9.11;79.50;98695.31;4934203;29;20054;-85
2022/09/26 03:03:52;;;;;;;34.60;15.65;;;;;;;8.92;79.42;98657.44;4972471;28;20063;-89
2022/09/26 03:07:03;;;;;;;37.58;14.60;;;;;;;9.31;79.52;98721.19;4963531;28;20125;-89
2022/09/26 03:09:41;;;;;;;33.13;15.15;;;;;;;9.09;79.54;98685.84;5049256;28;20052;-90
2022/09/26 03:12:09;;;;;;;32.10;14.15;;;;;;;8.89;79.20;98647.16;4991030;28;20037;-88
2022/09/26 03:14:49;;;;;;;34.47;14.73;;;;;;;8.99;79.17;98672.53;5000190;28;20038;-88
2022/09/26 03:17:19;;;;;;;31.95;14.77;;;;;;;9.07;79.05;98680.72;5009437;28;20049;-89
2022/09/26 03:20:05;;;;;;;34.28;15.98;;;;;;;9.04;78.85;98673.19;5058920;22;20425;-86
2022/09/26 03:23:55;;;;;;;38.85;15.95;;;;;;;9.34;79.15;98723.28;5108517;28;20058;-87
2022/09/26 03:27:17;;;;;;;37.25;16.60;;;;;;;9.29;79.37;98722.59;5094335;28;20048;-93
2022/09/26 03:29:46;;;;;;;34.47;14.90;;;;;;;8.95;79.39;98669.63;5061468;28;20074;-88
2022/09/26 03:32:28;;;;;;;35.08;15.10;;;;;;;9.04;79.30;98697.72;5063291;28;20086;-88
2022/09/26 03:34:59;;;;;;;39.95;15.52;;;;;;;8.80;79.50;98661.88;5095929;28;20044;-89
2022/09/26 03:37:25;;;;;;;39.03;16.70;;;;;;;8.89;79.27;98679.06;5095888;28;20642;-93
2022/09/26 03:39:55;;;;;;;43.13;16.37;;;;;;;9.09;79.60;98713.91;5077589;28;20047;-94
2022/09/26 03:42:55;;;;;;;41.17;16.05;;;;;;;8.67;79.50;98653.50;5096159;28;20044;-88
2022/09/26 03:45:26;;;;;;;31.88;15.55;;;;;;;9.04;79.34;98708.63;5090557;22;20057;-93
2022/09/26 03:48:02;;;;;;;40.78;16.10;;;;;;;8.73;79.90;98656.91;5057469;28;20090;-94
2022/09/26 03:50:29;;;;;;;38.42;15.68;;;;;;;8.92;79.04;98692.06;5041037;28;20036;-87
2022/09/26 03:52:55;;;;;;;33.60;16.10;;;;;;;9.20;79.29;98738.94;5082558;28;20046;-88
2022/09/26 03:56:11;;;;;;;32.45;15.45;;;;;;;9.15;79.34;98742.63;5071745;28;20040;-88
2022/09/26 03:59:03;;;;;;;41.17;15.65;;;;;;;9.20;79.47;98744.41;5075193;28;20048;-87
2022/09/26 04:01:29;;;;;;;30.73;14.73;;;;;;;8.78;79.18;98683.22;5090959;28;20082;-93
2022/09/26 04:04:20;;;;;;;33.67;16.05;;;;;;;9.20;79.30;98744.41;5090275;28;20040;-93
2022/09/26 04:06:49;;;;;;;30.48;14.18;;;;;;;9.01;78.79;98722.09;5091567;28;20063;-89
2022/09/26 04:09:43;;;;;;;31.77;15.48;;;;;;;9.11;78.91;98744.41;5078939;28;20044;-90
2022/09/26 04:12:13;;;;;;;46.45;14.95;;;;;;;9.00;79.01;98720.47;5058085;28;20081;-91
2022/09/26 04:15:08;;;;;;;34.65;15.57;;;;;;;8.64;78.79;98665.06;5063803;28;20114;-89
2022/09/26 04:17:43;;;;;;;34.35;14.80;;;;;;;8.96;78.95;98717.56;5077390;28;20089;-90
2022/09/26 04:20:10;;;;;;;34.15;15.38;;;;;;;8.97;78.43;98705.53;5077183;28;20036;-91
2022/09/26 04:22:37;;;;;;;35.92;15.77;;;;;;;9.02;78.38;98710.84;5047228;28;20067;-87
2022/09/26 04:25:05;;;;;;;38.13;14.97;;;;;;;9.23;78.03;98756.59;5087494;28;20048;-88
2022/09/26 04:27:50;;;;;;;35.28;15.60;;;;;;;9.27;78.57;98752.13;5104516;22;20051;-90
2022/09/26 04:30:25;;;;;;;45.53;16.38;;;;;;;9.22;78.38;98736.72;5080323;22;20079;-89
2022/09/26 04:33:11;;;;;;;31.98;15.48;;;;;;;8.74;77.73;98671.31;5067259;28;20036;-88
2022/09/26 04:36:03;;;;;;;37.53;15.88;;;;;;;8.93;78.35;98704.56;5047755;28;20051;-92
2022/09/26 04:38:32;;;;;;;32.95;15.98;;;;;;;8.51;78.42;98655.09;5096017;22;20046;-90
2022/09/26 04:41:26;;;;;;;36.58;16.30;;;;;;;9.22;78.49;98765.91;5093796;28;20039;-91
2022/09/26 04:44:05;;;;;;;35.10;15.60;;;;;;;8.91;78.83;98715.81;5095064;28;20036;-89
2022/09/26 04:46:31;;;;;;;38.60;15.50;;;;;;;9.38;79.08;98764.34;5111433;28;20509;-84
2022/09/26 04:49:00;;;;;;;30.88;14.95;;;;;;;9.27;78.85;98722.13;5095325;28;20054;-87
2022/09/26 04:51:26;;;;;;;;;;;;;;;9.49;78.06;98762.91;5080927;28;20071;-86
2022/09/26 04:54:08;;;;;;;38.95;15.55;;;;;;;9.21;77.60;98723.41;5091956;28;19968;-91
2022/09/26 04:56:37;;;;;;;35.70;15.43;;;;;;;9.01;77.74;98692.91;5112024;28;20035;-87
2022/09/26 04:59:08;;;;;;;39.35;15.85;;;;;;;9.13;77.81;98728.50;5082049;28;20040;-93
2022/09/26 05:02:42;;;;;;;40.47;16.50;;;;;;;8.90;78.04;98686.13;5116220;28;20051;-91
2022/09/26 05:05:08;;;;;;;35.03;15.32;;;;;;;9.14;77.70;98723.88;5061618;28;20054;-88
2022/09/26 05:07:39;;;;;;;35.60;16.05;;;;;;;9.18;78.10;98725.66;5059459;28;20133;-91
2022/09/26 05:10:18;;;;;;;34.95;15.15;;;;;;;8.93;78.07;98694.47;5076551;28;20083;-92
2022/09/26 05:12:52;;;;;;;31.42;14.23;;;;;;;9.39;77.85;98761.28;5060310;28;20047;-87
2022/09/26 05:18:22;;;;;;;26.27;12.27;;;;;;;9.52;77.92;98781.38;5053379;28;20063;-91
2022/09/26 05:20:49;;;;;;;26.70;11.30;;;;;;;9.55;77.85;98780.72;5003230;28;20044;-88
2022/09/26 05:26:18;;;;;;;31.00;11.45;;;;;;;9.53;77.98;98774.78;5003932;28;20069;-93
2022/09/26 05:26:36;;;;;;;26.25;11.30;;;;;;;9.59;77.78;98775.44;5039729;28;20537;-94
2022/09/26 05:29:06;;;;;;;23.70;11.55;;;;;;;9.62;77.61;98786.50;5040202;28;20059;-89
2022/09/26 05:31:42;;;;;;;21.50;10.48;;;;;;;9.60;77.57;98779.75;5040694;28;20028;-87
2022/09/26 05:34:10;;;;;;;20.75;9.95;;;;;;;9.55;77.53;98780.72;5055603;28;20037;-93
2022/09/26 05:36:38;;;;;;;20.67;10.10;;;;;;;9.58;77.51;98768.38;5052665;28;20040;-89
2022/09/26 05:40:55;;;;;;;20.25;9.60;;;;;;;9.75;77.12;98778.50;5037383;28;20057;-90
2022/09/26 05:41:58;;;;;;;46.55;21.92;;;;;;;9.97;76.46;98788.47;5037748;28;20587;-90
2022/09/26 05:44:25;;;;;;;34.17;15.30;;;;;;;9.80;76.29;98767.41;5025345;28;20042;-92
2022/09/26 05:46:51;;;;;;;17.20;8.90;;;;;;;9.92;75.65;98778.50;4982218;28;20049;-90
2022/09/26 05:49:19;;;;;;;16.42;7.45;;;;;;;9.92;76.04;98786.69;5015248;28;20049;-90
2022/09/26 05:51:47;;;;;;;21.60;10.07;;;;;;;10.00;76.67;98779.63;4981971;28;20041;-91
2022/09/26 05:54:32;;;;;;;24.33;11.35;;;;;;;10.03;75.83;98785.25;5002335;28;20511;-89
2022/09/26 05:57:04;;;;;;;34.53;15.30;;;;;;;10.00;75.56;98782.34;5057356;28;20048;-86
2022/09/26 05:59:46;;;;;;;19.08;10.00;;;;;;;10.03;75.19;98795.34;5057659;28;20036;-94
2022/09/26 06:02:34;;;;;;;15.30;8.23;;;;;;;10.08;75.48;98793.28;5061375;28;20060;-93
2022/09/26 06:05:14;;;;;;;14.90;7.70;;;;;;;9.96;75.04;98775.94;5060097;28;20093;-92
2022/09/26 06:07:40;;;;;;;20.77;9.87;;;;;;;10.06;75.60;98792.78;5074870;28;20044;-91
2022/09/26 06:10:20;;;;;;;19.17;9.50;;;;;;;10.17;75.62;98804.22;5055527;28;20040;-94
2022/09/26 06:13:02;;;;;;;25.85;8.13;;;;;;;9.84;75.16;98746.56;5038976;28;20144;-86
2022/09/26 06:15:42;;;;;;;19.50;9.50;;;;;;;10.26;75.76;98813.19;5038145;28;20093;-89
2022/09/26 06:18:08;;;;;;;;;;;;;;;10.16;74.79;98807.25;5055098;28;20040;-88
2022/09/26 06:20:37;;;;;;;16.42;8.95;;;;;;;10.01;75.38;98782.03;5070516;28;20018;-89
2022/09/26 06:23:12;;;;;;;13.00;7.22;;;;;;;10.18;75.71;98789.41;5081560;28;20519;-87
2022/09/26 06:25:43;;;;;;;14.57;6.90;;;;;;;10.08;74.58;98784.28;5095904;28;20082;-87
2022/09/26 06:28:09;;;;;;;17.05;6.25;;;;;;;9.95;75.22;98764.22;5092404;28;20032;-86
2022/09/26 06:31:21;;;;;;;10.15;6.03;;;;;;;10.39;75.46;98819.63;5103189;28;20044;-85
2022/09/26 06:34:13;;;;;;;12.85;4.93;;;;;;;10.32;76.67;98827.50;5112093;28;20043;-87
2022/09/26 06:38:20;;;;;;;13.95;5.40;;;;;;;10.25;76.66;98827.16;5105812;28;20131;-91
2022/09/26 06:40:46;;;;;;;12.88;5.00;;;;;;;10.06;76.54;98813.81;5099221;28;20092;-93
2022/09/26 06:43:13;;;;;;;11.68;5.28;;;;;;;9.77;76.76;98760.69;5078358;28;20093;-88
2022/09/26 06:46:07;;;;;;;15.10;5.00;;;;;;;10.24;76.30;98831.03;5083944;28;20043;-90
2022/09/26 06:49:06;;;;;;;15.15;6.00;;;;;;;10.18;76.73;98805.81;5039811;28;20052;-90
2022/09/26 06:52:15;;;;;;;9.68;5.00;;;;;;;10.06;75.80;98792.78;5056464;28;20528;-90
2022/09/26 06:54:42;;;;;;;12.45;5.95;;;;;;;10.04;75.64;98783.34;5002764;28;20099;-92
2022/09/26 06:57:10;;;;;;;10.50;4.88;;;;;;;10.25;74.40;98827.97;5019098;28;20072;-90
2022/09/26 06:59:47;;;;;;;14.82;5.32;;;;;;;10.03;74.48;98809.84;5003804;28;20045;-93
2022/09/26 07:02:58;;;;;;;12.93;5.50;;;;;;;10.18;75.17;98832.31;5025010;28;20052;-91
2022/09/26 07:05:50;;;;;;;9.10;5.30;;;;;;;10.06;76.02;98825.56;5007018;28;20056;-91
2022/09/26 07:12:51;;;;;;;12.02;5.13;;;;;;;9.62;77.17;98763.88;5016067;28;20069;-96
2022/09/26 07:15:44;;;;;;;11.93;4.85;;;;;;;10.12;77.08;98853.50;5000511;28;20046;-91
2022/09/26 07:18:30;;;;;;;35.17;10.32;;;;;;;9.84;77.78;98833.91;5016460;28;20061;-94
2022/09/26 07:21:28;;;;;;;30.13;9.02;;;;;;;9.98;77.98;98856.41;4999665;28;20034;-91
2022/09/26 07:28:02;;;;;;;10.70;4.57;;;;;;;9.30;77.13;98792.38;5058844;28;20048;-90
2022/09/26 07:30:39;;;;;;;8.75;4.85;;;;;;;9.86;77.89;98873.41;5074610;28;20100;-92
2022/09/26 07:33:12;;;;;;;9.45;4.63;;;;;;;9.66;77.95;98830.34;5045755;28;20551;-93
2022/09/26 07:35:45;;;;;;;8.80;3.95;;;;;;;9.74;77.26;98845.16;5045327;28;20109;-93
2022/09/26 07:38:12;;;;;;;10.25;3.85;;;;;;;9.45;76.93;98793.88;5056199;28;20058;-95
2022/09/26 07:40:43;;;;;;;9.55;4.22;;;;;;;9.67;76.17;98834.69;5054263;28;20044;-94
2022/09/26 07:43:35;;;;;;;7.55;4.03;;;;;;;9.97;76.69;98879.38;5039516;28;20048;-93
2022/09/26 07:52:27;;;;;;;8.52;4.20;;;;;;;9.89;77.38;98820.09;5110633;28;20040;-93
2022/09/26 07:55:21;;;;;;;8.45;4.97;;;;;;;9.77;76.50;98801.63;5105875;28;20118;-91
2022/09/26 07:58:18;;;;;;;8.88;4.07;;;;;;;10.35;76.85;98897.91;5095560;28;20044;-92
2022/09/26 08:01:30;;;;;;;7.53;3.60;;;;;;;10.11;76.60;98855.44;5029084;28;20053;-93
2022/09/26 08:07:31;;;;;;;12.07;3.40;;;;;;;10.30;76.75;98841.50;5071612;28;20044;-93
2022/09/26 08:10:45;;;;;;;7.93;2.83;;;;;;;10.61;74.48;98889.69;5030801;28;20523;-95
2022/09/26 08:13:34;;;;;;;7.47;2.90;;;;;;;10.15;75.14;98813.84;4996276;28;20068;-90
2022/09/26 08:16:23;;;;;;;9.95;3.17;;;;;;;10.24;74.79;98836.50;5017414;28;20315;-90
2022/09/26 08:19:10;;;;;;;7.47;3.17;;;;;;;10.64;75.39;98897.25;5014206;28;20049;-88
2022/09/26 08:21:43;;;;;;;4.82;2.80;;;;;;;10.05;75.92;98820.44;5015126;28;20050;-94
2022/09/26 08:25:11;;;;;;;8.98;3.90;;;;;;;10.72;76.21;98901.09;5000023;28;20083;-89
2022/09/26 08:27:58;;;;;;;7.03;3.20;;;;;;;10.44;74.11;98886.97;5033119;28;20053;-87
2022/09/26 08:32:59;;;;;;;5.07;3.15;;;;;;;10.46;74.73;98906.56;5033511;28;20034;-84
2022/09/26 08:35:25;;;;;;;6.60;2.78;;;;;;;10.29;76.08;98899.19;5033860;28;20045;-86
2022/09/26 08:38:14;;;;;;;7.18;3.65;;;;;;;10.15;75.76;98910.22;5017210;28;20049;-85
2022/09/26 08:40:58;;;;;;;5.45;2.88;;;;;;;10.19;76.42;98911.19;5001826;28;20132;-84
2022/09/26 08:44:27;;;;;;;3.25;2.30;;;;;;;10.24;75.92;98926.63;4994838;28;20522;-86
2022/09/26 08:47:32;;;;;;;7.30;3.40;;;;;;;10.23;76.38;98919.53;4992682;28;20060;-86
2022/09/26 08:50:42;;;;;;;6.50;2.70;;;;;;;10.37;76.33;98920.25;5034509;28;20068;-85
2022/09/26 08:53:28;;;;;;;5.13;2.70;;;;;;;10.57;76.82;98922.31;5088718;28;20505;-86
2022/09/26 08:56:00;;;;;;;7.35;2.78;;;;;;;10.68;77.33;98933.72;5119073;27;20047;-84
2022/09/26 08:58:50;;;;;;;6.15;2.72;;;;;;;10.48;75.08;98891.47;5107336;28;20043;-83
2022/09/26 09:01:47;;;;;;;6.82;3.20;;;;;;;10.74;74.95;98913.31;5124178;22;20742;-87
2022/09/26 09:04:39;;;;;;;10.20;3.40;;;;;;;10.91;73.69;98931.63;5084216;28;20047;-86
2022/09/26 09:07:21;;;;;;;7.75;3.35;;;;;;;10.54;72.32;98873.78;5077481;28;20075;-93
2022/09/26 09:09:50;;;;;;;7.05;3.05;;;;;;;10.60;72.85;98890.03;5064373;28;20504;-90
2022/09/26 09:13:42;;;;;;;4.90;3.20;;;;;;;10.95;72.94;98942.69;5099679;28;20046;-92
2022/09/26 09:17:00;;;;;;;14.35;3.55;;;;;;;10.46;73.20;98891.00;5074471;28;20039;-92
2022/09/26 09:20:47;;;;;;;8.30;4.05;;;;;;;10.69;74.12;98959.94;5067632;28;20044;-90
2022/09/26 09:24:20;;;;;;;7.85;3.45;;;;;;;10.41;72.84;98929.41;5094550;28;20051;-94
2022/09/26 09:27:23;;;;;;;6.75;3.03;;;;;;;10.69;72.34;98961.88;5072793;28;20056;-92
2022/09/26 09:30:29;;;;;;;8.15;3.67;;;;;;;10.69;73.31;98962.66;5098451;22;20037;-91
2022/09/26 09:33:54;;;;;;;8.90;4.00;;;;;;;10.23;71.42;98870.38;5094747;28;20130;-93
2022/09/26 09:37:25;;;;;;;8.40;4.20;;;;;;;10.86;73.17;98961.03;5022520;28;20260;-90
2022/09/26 09:40:45;;;;;;;16.23;4.28;;;;;;;10.81;72.89;98940.16;5029798;28;20057;-90
2022/09/26 09:43:48;;;;;;;10.20;3.97;;;;;;;11.12;71.38;98963.75;4971859;28;20098;-89
2022/09/26 09:46:31;;;;;;;8.93;3.90;;;;;;;10.94;70.97;98902.81;5042954;28;20025;-92
2022/09/26 09:49:24;;;;;;;8.45;4.03;;;;;;;11.16;68.63;98938.16;5002629;28;20200;-89
2022/09/26 09:52:08;;;;;;;7.57;3.72;;;;;;;11.42;69.50;98968.19;5016274;28;20038;-91
2022/09/26 09:55:04;;;;;;;6.20;3.17;;;;;;;11.40;68.84;98975.91;4996829;28;20041;-91
2022/09/26 09:58:32;;;;;;;7.70;2.90;;;;;;;11.45;67.81;98963.97;4984702;28;20056;-93
2022/09/26 10:01:14;;;;;;;4.45;2.95;;;;;;;11.29;68.43;98948.09;4965264;28;20042;-94
2022/09/26 10:04:05;;;;;;;7.50;2.83;;;;;;;11.36;68.03;98979.66;4966609;28;20439;-91
2022/09/26 10:06:49;;;;;;;6.53;3.03;;;;;;;11.37;66.81;98970.31;4964896;28;20066;-90
2022/09/26 10:09:26;;;;;;;12.05;3.47;;;;;;;11.12;68.98;98936.41;5064926;28;20073;-90
2022/09/26 10:12:27;;;;;;;8.65;3.40;;;;;;;11.46;67.57;98980.09;5057964;28;20045;-90
2022/09/26 10:15:21;;;;;;;5.53;3.33;;;;;;;11.52;66.30;98983.44;5070595;28;20040;-89
2022/09/26 10:18:16;;;;;;;10.90;3.35;;;;;;;11.60;67.56;98987.28;5072569;28;20075;-90
2022/09/26 10:21:15;;;;;;;11.35;3.40;;;;;;;11.54;66.30;98964.75;5046226;28;20042;-89
2022/09/26 10:24:33;;;;;;;6.30;3.40;;;;;;;11.83;65.82;98979.63;5057067;28;20041;-90
2022/09/26 10:27:22;;;;;;;7.70;3.65;;;;;;;11.84;66.08;98960.16;5058687;28;20052;-90
2022/09/26 10:30:00;;;;;;;6.05;3.50;;;;;;;12.03;66.26;98958.94;5041333;28;20043;-95
2022/09/26 10:33:03;;;;;;;8.20;3.67;;;;;;;11.93;64.40;98935.47;5141364;22;20078;-89
2022/09/26 10:35:54;;;;;;;8.93;3.75;;;;;;;12.04;65.84;98957.78;5083550;27;20075;-90
2022/09/26 10:40:43;;;;;;;12.60;3.75;;;;;;;12.07;64.22;98952.44;5103346;27;20470;-90
2022/09/26 10:41:25;;;;;;;7.18;3.08;;;;;;;12.02;63.60;98954.56;5120279;27;20038;-94
2022/09/26 10:43:56;;;;;;;12.35;3.30;;;;;;;11.83;62.94;98944.81;5102900;27;20035;-91
2022/09/26 10:46:46;;;;;;;5.88;2.97;;;;;;;11.88;63.71;98955.59;5139499;27;20117;-90
2022/09/26 10:50:11;;;;;;;14.70;3.50;;;;;;;11.92;63.04;98959.31;5030325;28;20081;-91
2022/09/26 10:53:07;;;;;;;8.13;2.05;;;;;;;11.67;66.22;98955.53;5053459;28;20048;-89
2022/09/26 10:56:25;;;;;;;7.80;2.28;;;;;;;11.75;68.58;98987.56;5055609;28;20048;-89
2022/09/26 10:59:08;;;;;;;4.72;2.00;;;;;;;11.37;69.45;98943.72;5040908;28;20047;-90
2022/09/26 11:08:47;;;;;;;4.82;2.25;;;;;;;11.43;69.89;98986.22;5054344;28;20039;-92
2022/09/26 11:11:50;;;;;;;5.40;2.83;;;;;;;11.36;70.21;99007.00;5058946;28;20536;-93
2022/09/26 11:14:42;;;;;;;4.78;2.70;;;;;;;11.04;70.71;98968.91;5023337;28;20044;-90
2022/09/26 11:17:12;;;;;;;4.68;2.20;;;;;;;11.01;70.90;98980.50;5027346;28;20101;-91
2022/09/26 11:20:01;;;;;;;9.20;2.13;;;;;;;11.12;71.59;99011.06;5044635;28;20445;-91
2022/09/26 11:22:41;;;;;;;3.60;1.80;;;;;;;10.97;72.28;99012.38;5012158;28;20191;-91
2022/09/26 11:25:57;;;;;;;7.93;2.40;;;;;;;10.97;72.20;99017.03;5035178;28;20087;-91
2022/09/26 11:32:39;;;;;;;8.88;3.70;;;;;;;10.86;71.98;99002.06;5140121;22;20047;-88
2022/09/26 11:35:55;;;;;;;6.85;2.53;;;;;;;10.95;71.57;99020.09;5116274;28;20085;-92
2022/09/26 11:38:45;;;;;;;8.48;3.30;;;;;;;11.00;71.08;99014.47;5085015;28;20039;-91
2022/09/26 11:41:42;;;;;;;8.48;3.28;;;;;;;10.90;70.69;99023.00;5065294;28;20421;-92
2022/09/26 11:44:35;;;;;;;12.25;3.30;;;;;;;10.91;71.32;99019.13;5092911;27;20051;-90
2022/09/26 11:48:11;;;;;;;22.35;5.47;;;;;;;10.92;71.41;99008.97;5126984;27;20172;-89
2022/09/26 11:51:15;;;;;;;7.85;2.90;;;;;;;10.92;70.15;99007.03;5100437;28;20154;-92
2022/09/26 11:53:54;;;;;;;12.68;4.20;;;;;;;11.05;70.90;99036.16;5103671;27;20039;-92
2022/09/26 11:56:32;;;;;;;9.50;2.80;;;;;;;11.06;70.07;99037.00;5085078;27;20050;-90
2022/09/26 11:59:40;;;;;;;10.23;3.38;;;;;;;10.73;71.45;98999.19;5119567;27;20112;-90
2022/09/26 12:02:18;;;;;;;6.53;2.80;;;;;;;10.92;71.76;99048.06;5085631;27;20047;-93
2022/09/26 12:05:01;;;;;;;8.68;2.90;;;;;;;10.65;71.83;99021.84;5119338;27;20047;-92
2022/09/26 12:07:47;;;;;;;7.00;2.80;;;;;;;10.60;71.45;98996.63;5071080;27;20041;-91
2022/09/26 12:11:09;;;;;;;10.27;3.60;;;;;;;11.08;71.81;99050.31;5120285;27;20046;-94
2022/09/26 12:14:08;;;;;;;7.95;3.00;;;;;;;10.99;70.89;99042.94;5084751;27;20035;-93
2022/09/26 12:17:03;;;;;;;5.60;3.00;;;;;;;10.96;71.83;99053.69;5084267;27;20047;-91
2022/09/26 12:19:54;;;;;;;5.72;3.10;;;;;;;10.96;72.53;99054.53;5053062;28;20045;-89
2022/09/26 12:23:06;;;;;;;5.15;2.38;;;;;;;10.92;72.83;99067.22;5041512;28;20052;-91
2022/09/26 12:25:55;;;;;;;8.60;2.67;;;;;;;10.92;73.12;99061.75;5039889;28;20037;-89
2022/09/26 12:29:06;;;;;;;7.88;2.83;;;;;;;10.92;72.89;99063.69;5053675;28;20078;-89
2022/09/26 12:32:07;;;;;;;9.18;2.97;;;;;;;10.27;73.24;98965.06;5071296;28;20155;-91
2022/09/26 12:35:02;;;;;;;10.43;2.75;;;;;;;10.58;73.65;99038.72;5039218;28;20090;-93
2022/09/26 12:38:00;;;;;;;9.93;3.40;;;;;;;10.86;73.43;99074.00;5036105;28;20053;-94
2022/09/26 12:40:35;;;;;;;12.65;4.80;;;;;;;10.79;74.90;99066.25;5035930;28;20097;-88
2022/09/26 12:43:49;;;;;;;6.22;3.08;;;;;;;10.66;74.58;99033.59;5037491;28;20048;-93
2022/09/26 12:47:03;;;;;;;10.82;2.88;;;;;;;10.78;74.37;99056.44;5036100;28;20044;-88
2022/09/26 12:49:47;;;;;;;4.75;2.75;;;;;;;10.87;73.37;99067.38;5052064;28;20135;-92
2022/09/26 12:52:16;;;;;;;8.95;3.45;;;;;;;10.89;74.23;99065.13;5036278;28;20128;-89
2022/09/26 12:55:06;;;;;;;12.80;3.67;;;;;;;10.94;73.40;99064.16;5035867;28;20071;-92
2022/09/26 12:58:20;;;;;;;9.18;3.83;;;;;;;10.98;72.73;99065.13;5037270;28;20105;-94
2022/09/26 13:04:37;;;;;;;7.47;3.70;;;;;;;10.88;72.95;99044.38;5016492;28;20055;-88
2022/09/26 13:07:03;;;;;;;7.07;3.50;;;;;;;11.07;73.39;99062.41;5032235;28;20454;-90
2022/09/26 13:10:01;;;;;;;9.13;3.78;;;;;;;11.18;73.26;99066.41;5092504;22;20055;-89
2022/09/26 13:13:25;;;;;;;9.60;4.28;;;;;;;11.21;72.60;99063.84;5097871;28;20564;-90
2022/09/26 13:16:26;;;;;;;7.63;3.28;;;;;;;11.27;72.43;99069.94;5114442;28;20092;-90
2022/09/26 13:19:22;;;;;;;8.10;3.83;;;;;;;11.31;72.28;99070.09;5044980;28;20581;-92
2022/09/26 13:22:26;;;;;;;11.00;3.60;;;;;;;11.30;72.11;99077.53;5067386;28;20102;-89
2022/09/26 13:25:38;;;;;;;8.52;3.00;;;;;;;11.17;72.47;99078.50;5095353;28;20463;-89
2022/09/26 13:28:53;;;;;;;13.45;3.20;;;;;;;10.82;72.44;99053.84;5085060;28;20050;-89
2022/09/26 13:31:54;;;;;;;6.43;3.22;;;;;;;10.92;72.97;99080.88;5079936;28;20020;-90
2022/09/26 13:34:24;;;;;;;12.25;3.50;;;;;;;10.90;72.69;99076.88;5017530;28;20045;-89
2022/09/26 13:36:50;;;;;;;8.18;3.22;;;;;;;10.44;72.73;99027.13;5015013;28;20091;-89
2022/09/26 13:39:50;;;;;;;7.60;3.20;;;;;;;10.56;72.94;99056.56;5016692;28;20066;-86
2022/09/26 13:42:46;;;;;;;8.30;2.80;;;;;;;10.65;72.82;99087.44;5003275;28;20049;-89
2022/09/26 13:45:22;;;;;;;8.25;3.25;;;;;;;10.57;72.95;99077.31;5032016;28;20198;-89
2022/09/26 13:48:23;;;;;;;9.57;3.63;;;;;;;10.39;73.09;99046.41;5026844;28;20080;-88